This is the latest recevied weather packets stored in our database for station/object KC3HIX. If no packets are shown the sender has not sent any weather packets the latest 10 day(s).
| Time | Temp. | Humidity | Pressure | Rain* | Wind** | Luminosity | Snow |
|---|---|---|---|---|---|---|---|
| 1778181325 | 18.89° C | 40% | 1008.9 hPa | 0 mm | - | - | - |
| 1778181003 | 18.33° C | 38% | 1008.9 hPa | 0 mm | - | - | - |
| 1778179225 | 16.67° C | 37% | 1008.9 hPa | 0 mm | - | - | - |
| 1778177403 | 16.67° C | 45% | 1009.6 hPa | 0 mm | - | - | - |
| 1778176203 | 17.22° C | 38% | 1009.9 hPa | 0 mm | - | - | - |
| 1778175603 | 17.22° C | 41% | 1009.9 hPa | 0 mm | - | - | - |
| 1778172304 | 16.11° C | 36% | 1010.6 hPa | 0 mm | - | - | - |
| 1778171704 | 16.67° C | 40% | 1010.6 hPa | 0 mm | - | - | - |
| 1778170825 | 16.67° C | 39% | 1011 hPa | 0 mm | - | - | - |
| 1778169325 | 16.67° C | 44% | 1011.3 hPa | 0 mm | - | - | - |
| 1778169025 | 16.11° C | 40% | 1011.7 hPa | 0 mm | - | - | - |
| 1778166625 | 15.56° C | 44% | 1012 hPa | 0 mm | - | - | - |
| 1778165425 | 15° C | 43% | 1012.7 hPa | 0 mm | - | - | - |
| 1778165104 | 15° C | 40% | 1012.7 hPa | 0 mm | - | - | - |
| 1778164804 | 15° C | 42% | 1012.3 hPa | 0 mm | - | - | - |
| 1778164225 | 15.56° C | 44% | 1012.3 hPa | 0 mm | - | - | - |
| 1778163304 | 16.67° C | 40% | 1012.7 hPa | 0 mm | - | - | - |
| 1778161804 | 17.78° C | 42% | 1012.7 hPa | 0 mm | - | - | - |
| 1778159404 | 17.22° C | 40% | 1013 hPa | 0 mm | - | - | - |
| 1778157304 | 16.11° C | 49% | 1013.4 hPa | 0 mm | - | - | - |
| 1778154303 | 10° C | 66% | 1013 hPa | 0 mm | - | - | - |
| 1778152803 | 7.78° C | 85% | 1012.7 hPa | 0 mm | - | - | - |
| 1778151903 | 6.67° C | 86% | 1012.7 hPa | 0 mm | - | - | - |
| 1778149803 | 7.22° C | 81% | 1012.3 hPa | 0 mm | - | - | - |
| 1778145027 | 8.89° C | 71% | 1011.7 hPa | 0 mm | - | - | - |
* Rain latest hour (hover to see other rain measurements)
** Current wind speed in m/s (hover to see current wind gust speed)